createdAt,value
2018-04-08T00:06:57.000Z,1001.695
2018-04-08T00:16:57.000Z,1001.607
2018-04-08T00:26:57.000Z,1001.513
2018-04-08T00:36:57.000Z,1001.424
2018-04-08T00:46:57.000Z,1001.388
2018-04-08T00:56:57.000Z,1001.314
2018-04-08T01:06:57.000Z,1001.297
2018-04-08T01:16:57.000Z,1001.203
2018-04-08T01:26:57.000Z,1001.177
2018-04-08T01:36:57.000Z,1001.14
2018-04-08T01:46:57.000Z,1001.105
2018-04-08T01:56:57.000Z,1001.092
2018-04-08T02:06:57.000Z,1001.097
2018-04-08T02:16:58.000Z,1001.059
2018-04-08T02:26:58.000Z,1001.026
2018-04-08T02:36:58.000Z,1001.038
2018-04-08T02:46:58.000Z,1001.017
2018-04-08T02:56:58.000Z,1000.95
2018-04-08T03:06:58.000Z,1000.95
2018-04-08T03:16:58.000Z,1000.94
2018-04-08T03:26:58.000Z,1000.809
2018-04-08T03:36:58.000Z,1000.825
2018-04-08T03:46:58.000Z,1000.723
2018-04-08T03:56:58.000Z,1000.758
2018-04-08T04:06:58.000Z,1000.828
2018-04-08T04:16:58.000Z,1000.777
2018-04-08T04:26:58.000Z,1000.688
2018-04-08T04:36:58.000Z,1000.676
2018-04-08T04:46:58.000Z,1000.672
2018-04-08T04:56:58.000Z,1000.701
2018-04-08T05:06:58.000Z,1000.614
2018-04-08T05:16:58.000Z,1000.591
2018-04-08T05:26:58.000Z,1000.632
2018-04-08T05:36:58.000Z,1000.551
2018-04-08T05:46:58.000Z,1000.639
2018-04-08T05:56:58.000Z,1000.662
2018-04-08T06:06:58.000Z,1000.685
2018-04-08T06:16:58.000Z,1000.696
2018-04-08T06:26:58.000Z,1000.668
2018-04-08T06:36:58.000Z,1000.647
2018-04-08T06:46:58.000Z,1000.684
2018-04-08T06:56:58.000Z,1000.732
2018-04-08T07:06:58.000Z,1000.772
2018-04-08T07:16:58.000Z,1000.749
2018-04-08T07:26:58.000Z,1000.672
2018-04-08T07:36:58.000Z,1000.611
2018-04-08T07:46:58.000Z,1000.628
2018-04-08T07:56:58.000Z,1000.609
2018-04-08T08:06:58.000Z,1000.558
2018-04-08T08:16:58.000Z,1000.574
2018-04-08T08:26:58.000Z,1000.611
2018-04-08T08:36:58.000Z,1000.697
2018-04-08T08:46:58.000Z,1000.643
2018-04-08T08:56:58.000Z,1000.622
2018-04-08T09:06:58.000Z,1000.655
2018-04-08T09:16:58.000Z,1000.59
2018-04-08T09:26:58.000Z,1000.553
2018-04-08T09:36:58.000Z,1000.56
2018-04-08T09:46:58.000Z,1000.542
2018-04-08T09:56:58.000Z,1000.485
2018-04-08T10:06:58.000Z,1000.305
2018-04-08T10:16:58.000Z,1000.276
2018-04-08T10:26:58.000Z,1000.249
2018-04-08T10:36:59.000Z,1000.176
2018-04-08T10:46:59.000Z,1000.145
2018-04-08T10:56:59.000Z,1000.065
2018-04-08T11:06:59.000Z,999.998
2018-04-08T11:16:59.000Z,999.935
2018-04-08T11:26:59.000Z,999.777
2018-04-08T11:36:59.000Z,999.768
2018-04-08T11:46:59.000Z,999.822
2018-04-08T11:56:59.000Z,999.833
2018-04-08T12:06:59.000Z,999.742
2018-04-08T12:16:59.000Z,999.645
2018-04-08T12:26:59.000Z,999.582
2018-04-08T12:36:59.000Z,999.544
2018-04-08T12:46:59.000Z,999.405
2018-04-08T12:56:59.000Z,999.447
2018-04-08T13:06:59.000Z,999.301
2018-04-08T13:16:59.000Z,999.128
2018-04-08T13:26:59.000Z,999.029
2018-04-08T13:36:59.000Z,998.936
2018-04-08T13:47:00.000Z,998.875
2018-04-08T13:56:59.000Z,998.773
2018-04-08T14:06:59.000Z,998.754
2018-04-08T14:16:59.000Z,998.651
2018-04-08T14:26:59.000Z,998.559
2018-04-08T14:36:59.000Z,998.492
2018-04-08T14:46:59.000Z,998.419
2018-04-08T14:56:59.000Z,998.386
2018-04-08T15:07:00.000Z,998.258
2018-04-08T15:16:59.000Z,998.204
2018-04-08T15:26:59.000Z,998.162
2018-04-08T15:36:59.000Z,998.126
2018-04-08T15:46:59.000Z,998.117
2018-04-08T15:56:59.000Z,998.117
2018-04-08T16:06:59.000Z,998.148
2018-04-08T16:16:59.000Z,998.222
2018-04-08T16:26:59.000Z,998.283
2018-04-08T16:36:59.000Z,998.318
2018-04-08T16:46:59.000Z,998.34
2018-04-08T16:56:59.000Z,998.381
2018-04-08T17:06:59.000Z,998.369
2018-04-08T17:17:00.000Z,998.34
2018-04-08T17:27:00.000Z,998.301
2018-04-08T17:36:59.000Z,998.321
2018-04-08T17:57:01.000Z,998.481
2018-04-08T18:06:59.000Z,998.588
2018-04-08T18:17:00.000Z,998.613
2018-04-08T18:26:59.000Z,998.724
2018-04-08T18:36:59.000Z,998.774
2018-04-08T18:46:59.000Z,998.905
2018-04-08T18:57:00.000Z,998.984
2018-04-08T19:07:03.000Z,999.019
2018-04-08T19:17:02.000Z,999.083
2018-04-08T19:27:00.000Z,999.153
2018-04-08T19:37:00.000Z,999.118
2018-04-08T19:47:00.000Z,999.175
2018-04-08T19:57:00.000Z,999.1
2018-04-08T20:07:00.000Z,999.071
2018-04-08T20:17:00.000Z,999.056
2018-04-08T20:27:00.000Z,998.965
2018-04-08T20:37:00.000Z,998.895
2018-04-08T20:47:00.000Z,998.902
2018-04-08T20:57:00.000Z,998.886
2018-04-08T21:07:00.000Z,998.9
2018-04-08T21:17:00.000Z,998.879
2018-04-08T21:27:00.000Z,998.929
2018-04-08T21:37:00.000Z,998.901
2018-04-08T21:47:00.000Z,998.884
2018-04-08T21:57:00.000Z,998.864
2018-04-08T22:07:00.000Z,998.773
2018-04-08T22:17:00.000Z,998.756
2018-04-08T22:27:00.000Z,998.764
2018-04-08T22:37:00.000Z,998.773
2018-04-08T22:47:00.000Z,998.872
2018-04-08T22:57:00.000Z,998.829
2018-04-08T23:07:00.000Z,998.784
2018-04-08T23:17:00.000Z,998.765
2018-04-08T23:27:00.000Z,998.727
2018-04-08T23:37:00.000Z,998.675
2018-04-08T23:47:00.000Z,998.583
2018-04-08T23:57:00.000Z,998.627
